Nearby METAR Reports

 

KMQS - Coatesville, Pennsylvania, USA
Distance from station: NW 12mi, 19km
Updated: Thu, 20-Feb-2020 2:35pm EST
Mostly cloudy
Mostly cloudy
 Wind from W
Wind: W 7 mph , 11 km/h
Temperature: 34°F , 1°C
Wind Chill: 28°F , -2°C
Dew Point: 12°F , -11°C
Humidity: 41%
Barometer: 30.40 inHg , 1029.5 hPa
Clouds: Mostly cloudy
Visibility: 10 miles , 16 km
Cloud details: Mostly cloudy 12000 ft
2020/02/20 19:35 KMQS 201935Z AUTO 28006KT 10SM BKN120 01/M11 A3040 RMK AO2
KOQN - West Chester, Pennsylvania, USA
Distance from station: NE 13mi, 21km
Updated: Thu, 20-Feb-2020 2:35pm EST
Clear
Clear
 Wind from W
Wind: W 6 mph , 9 km/h
Temperature: 36°F , 2°C
Wind Chill: 31°F , -1°C
Dew Point: 10°F , -12°C
Humidity: 35%
Barometer: 30.39 inHg , 1029.1 hPa
Clouds: Clear
Visibility: 10 miles , 16 km
2020/02/20 19:35 KOQN 201935Z AUTO 27005KT 10SM CLR 02/M12 A3039 RMK AO2
 
KILG - Wilmington, Delaware, USA
Distance from station: SSE 14mi, 23km
Updated: Thu, 20-Feb-2020 2:51pm EST
Clear
Clear
 Wind from NNW
Wind: NNW 3 mph , 6 km/h
Temperature: 37°F , 3°C
Dew Point: 9°F , -13°C
Humidity: 30%
Barometer: 30.42 inHg , 1030.1 hPa
Clouds: Clear
Visibility: 10 miles , 16 km
2020/02/20 19:51 KILG 201951Z 34003KT 10SM CLR 03/M13 A3042 RMK AO2 SLP301 T00331128
KPHL - Philadelphia, Pennsylvania, USA
Distance from station: E 27mi, 43km
Updated: Thu, 20-Feb-2020 1:54pm EST
Overcast
Overcast
 Wind from WNW
Wind: WNW 7 mph , 11 km/h
Temperature: 36°F , 2°C
Wind Chill: 30°F , -1°C
Dew Point: 9°F , -13°C
Humidity: 32%
Barometer: 30.43 inHg , 1030.5 hPa
Clouds: Overcast
Visibility: 10 miles , 16 km
Cloud details: Mostly cloudy 13000 ft
Overcast 16000 ft
2020/02/20 18:54 KPHL 201854Z 29006KT 10SM BKN130 OVC160 02/M13 A3043 RMK AO2 SLP303 T00221128 $
 
KPTW - Pottstown, Pennsylvania, USA
Distance from station: NNE 29mi, 47km
Updated: Thu, 20-Feb-2020 1:54pm EST
Clear
Clear
 Wind from W
Wind: W 9 mph , 15 km/h
Temperature: 34°F , 1°C
Wind Chill: 27°F , -3°C
Dew Point: 10°F , -12°C
Humidity: 38%
Barometer: 30.42 inHg , 1030.1 hPa
Clouds: Clear
Visibility: 9 miles , 14 km
2020/02/20 18:54 KPTW 201854Z AUTO 28008KT 250V320 9SM CLR 01/M12 A3042 RMK AO2 SLP303 T00061117
KLOM - Philly Wings F, Pennsylvania, USA
Distance from station: NE 32mi, 52km
Updated: Thu, 20-Feb-2020 2:35pm EST
Clear
Clear
 Wind from NW
Wind: NW 6 mph , 9 km/h
Temperature: 36°F , 2°C
Wind Chill: 31°F , -1°C
Dew Point: 12°F , -11°C
Humidity: 38%
Barometer: 30.40 inHg , 1029.5 hPa
Clouds: Clear
Visibility: 10 miles , 16 km
2020/02/20 19:35 KLOM 201935Z AUTO 32005KT 10SM CLR 02/M11 A3040 RMK AO2 T00171112
 
KAPG - Aberdeen/Phillip, Maryland, USA
Distance from station: SW 34mi, 55km
Updated: Thu, 20-Feb-2020 1:58pm EST
Overcast
Overcast
 Wind from calm
Wind: Calm
Temperature: 36°F , 2°C
Dew Point: 12°F , -11°C
Humidity: 38%
Barometer: 30.43 inHg , 1030.5 hPa
Clouds: Overcast
Visibility: 10 miles , 16 km
Cloud details: Overcast 12000 ft
2020/02/20 18:58 KAPG 201858Z 00000KT 10SM OVC120 02/M11 A3043 RMK AO2A SLP308 T00241109 PNO TSNO $
KLNS - Lancaster, Pennsylvania, USA
Distance from station: WNW 35mi, 57km
Updated: Thu, 20-Feb-2020 1:53pm EST
Clear
Clear
 Wind from N
Wind: N 8 mph , 13 km/h
Temperature: 36°F , 2°C
Wind Chill: 30°F , -1°C
Dew Point: 12°F , -11°C
Humidity: 38%
Barometer: 30.41 inHg , 1029.8 hPa
Clouds: Clear
Visibility: 10 miles , 16 km
2020/02/20 18:53 KLNS 201853Z 35007KT 10SM CLR 02/M11 A3041 RMK AO2 SLP303 T00221111
 
KRDG - Reading, Pennsylvania, USA
Distance from station: NNW 38mi, 62km
Updated: Thu, 20-Feb-2020 1:54pm EST
Clear
Clear
 Wind from WNW
Wind: WNW 10 mph , 17 km/h
Temperature: 36°F , 2°C
Wind Chill: 29°F , -2°C
Dew Point: 12°F , -11°C
Humidity: 38%
Barometer: 30.41 inHg , 1029.8 hPa
Clouds: Clear
Visibility: 10 miles , 16 km
2020/02/20 18:54 KRDG 201854Z 29009KT 10SM CLR 02/M11 A3041 RMK AO2 SLP306 T00171106
KPNE - Philadelphia/Ne, Pennsylvania, USA
Distance from station: ENE 42mi, 67km
Updated: Thu, 20-Feb-2020 1:54pm EST
Clear
Clear
 Wind from WNW
Wind: WNW 7 mph , 11 km/h
Temperature: 37°F , 3°C
Wind Chill: 32°F , 0°C
Dew Point: 10°F , -12°C
Humidity: 33%
Barometer: 30.43 inHg , 1030.5 hPa
Clouds: Clear
Visibility: 10 miles , 16 km
2020/02/20 18:54 KPNE 201854Z 30006KT 10SM CLR 03/M12 A3043 RMK AO2 SLP305 T00331117
 
KCKZ - Perkasie, Pennsylvania, USA
Distance from station: NNE 45mi, 72km
Updated: Thu, 20-Feb-2020 2:35pm EST
Clear
Clear
 Wind from NW
Wind: NW 8 mph , 13 km/h
Temperature: 32°F , 0°C
Wind Chill: 25°F , -4°C
Dew Point: 10°F , -12°C
Humidity: 40%
Barometer: 30.39 inHg , 1029.1 hPa
Clouds: Clear
Visibility: 10 miles , 16 km
2020/02/20 19:35 KCKZ 201935Z AUTO 31007KT 10SM CLR 00/M12 A3039 RMK AO2
KUKT - Quakertown Arp, Pennsylvania, USA
Distance from station: NNE 45mi, 73km
Updated: Thu, 20-Feb-2020 2:35pm EST
Clear
Clear
 Wind from varies
Wind: varies 5 mph , 7 km/h
Temperature: 34°F , 1°C
Wind Chill: 29°F , -2°C
Dew Point: 10°F , -12°C
Humidity: 38%
Barometer: 30.39 inHg , 1029.1 hPa
Clouds: Clear
Visibility: 10 miles , 16 km
2020/02/20 19:35 KUKT 201935Z AUTO VRB04KT 10SM CLR 01/M12 A3039 RMK A01
 
KDYL - Doylestown, Pennsylvania, USA
Distance from station: NE 47mi, 76km
Updated: Thu, 20-Feb-2020 1:54pm EST
Clear
Clear
 Wind from WNW
Wind: WNW 7 mph , 11 km/h
Temperature: 36°F , 2°C
Wind Chill: 30°F , -1°C
Dew Point: 9°F , -13°C
Humidity: 32%
Barometer: 30.39 inHg , 1029.1 hPa
Clouds: Clear
Visibility: 10 miles , 16 km
2020/02/20 18:54 KDYL 201854Z AUTO 30006KT 10SM CLR 02/M13 A3039 RMK AO2 SLP299 T00171128 $
KMIV - Millville, New Jersey, USA
Distance from station: SE 48mi, 77km
Updated: Thu, 20-Feb-2020 1:54pm EST
Overcast
Overcast
 Wind from WNW
Wind: WNW 3 mph , 6 km/h
Temperature: 37°F , 3°C
Dew Point: 12°F , -11°C
Humidity: 35%
Barometer: 30.42 inHg , 1030.1 hPa
Clouds: Overcast
Visibility: 10 miles , 16 km
Cloud details: Overcast 10000 ft
2020/02/20 18:54 KMIV 201854Z AUTO 29003KT 10SM OVC100 03/M11 A3042 RMK AO2 SLP299 T00281111
 
KVAY - Mount Holly, New Jersey, USA
Distance from station: E 48mi, 78km
Updated: Thu, 20-Feb-2020 1:54pm EST
Clear
Clear
 Wind from varies
Wind: varies 3 mph , 6 km/h
Temperature: 36°F , 2°C
Dew Point: 10°F , -12°C
Humidity: 35%
Barometer: 30.42 inHg , 1030.1 hPa
Clouds: Clear
Visibility: 10 miles , 16 km
2020/02/20 18:54 KVAY 201854Z AUTO VRB03KT 10SM CLR 02/M12 A3042 RMK AO2 SLP302 T00171117